TRA658 GMTT-LEPA
Flight info
| Callsign | TRA658 |
|---|---|
| Flight time | 1h 39m |
| Altitude | 34000 |
| Route | LAMAD M143 GALTO/N0446F340 N869 PIMOS M445 RIXUR N851 RUXET |
| Aircraft | A320/M-SDE3FGHIRWY/LB1 |
Departure
| Time | 2026-05-05 17:37 |
|---|---|
| Airport | Tangier Ibn Battuta Airport (GMTT) |
Arrival
| Time | 2026-05-05 19:16 |
|---|---|
| Airport | Palma de Mallorca Airport (LEPA) |
| Time | Latitude | Longitude | Altitude | Speed | Heading |
|---|---|---|---|---|---|
| 2026-05-05 17:03 | 35.72534 | -5.91346 | 46 ft | 0 kts | 356° |
| 2026-05-05 17:25 | 35.72526 | -5.91345 | 46 ft | 3 kts | 356° |
| 2026-05-05 17:25 | 35.72511 | -5.91344 | 46 ft | 3 kts | 357° |
| 2026-05-05 17:25 | 35.72481 | -5.91342 | 44 ft | 3 kts | 352° |
| 2026-05-05 17:25 | 35.72459 | -5.91337 | 44 ft | 3 kts | 346° |
| 2026-05-05 17:26 | 35.72437 | -5.91328 | 46 ft | 3 kts | 337° |
| 2026-05-05 17:26 | 35.72427 | -5.91323 | 46 ft | 1 kts | 337° |
| 2026-05-05 17:30 | 35.72432 | -5.91328 | 46 ft | 5 kts | 318° |
| 2026-05-05 17:30 | 35.72437 | -5.91390 | 45 ft | 9 kts | 269° |
| 2026-05-05 17:31 | 35.72433 | -5.91483 | 44 ft | 12 kts | 266° |
| 2026-05-05 17:31 | 35.72438 | -5.91600 | 42 ft | 15 kts | 291° |
| 2026-05-05 17:31 | 35.72519 | -5.91681 | 39 ft | 16 kts | 343° |
| 2026-05-05 17:31 | 35.72639 | -5.91697 | 41 ft | 18 kts | 354° |
| 2026-05-05 17:32 | 35.72758 | -5.91711 | 40 ft | 17 kts | 355° |
| 2026-05-05 17:32 | 35.72863 | -5.91721 | 40 ft | 14 kts | 358° |
| 2026-05-05 17:32 | 35.72939 | -5.91685 | 40 ft | 13 kts | 65° |
| 2026-05-05 17:32 | 35.72935 | -5.91576 | 42 ft | 12 kts | 96° |
| 2026-05-05 17:33 | 35.72926 | -5.91472 | 43 ft | 12 kts | 96° |
| 2026-05-05 17:33 | 35.72917 | -5.91374 | 45 ft | 12 kts | 97° |
| 2026-05-05 17:33 | 35.72906 | -5.91273 | 46 ft | 12 kts | 97° |
| 2026-05-05 17:33 | 35.72895 | -5.91168 | 47 ft | 13 kts | 96° |
| 2026-05-05 17:34 | 35.72885 | -5.91059 | 49 ft | 13 kts | 96° |
| 2026-05-05 17:34 | 35.72875 | -5.90947 | 50 ft | 13 kts | 96° |
| 2026-05-05 17:34 | 35.72864 | -5.90832 | 52 ft | 14 kts | 96° |
| 2026-05-05 17:34 | 35.72853 | -5.90711 | 53 ft | 14 kts | 96° |
| 2026-05-05 17:35 | 35.72841 | -5.90586 | 54 ft | 15 kts | 96° |
| 2026-05-05 17:35 | 35.72829 | -5.90457 | 54 ft | 15 kts | 96° |
| 2026-05-05 17:35 | 35.72817 | -5.90327 | 58 ft | 15 kts | 94° |
| 2026-05-05 17:35 | 35.72857 | -5.90210 | 54 ft | 16 kts | 38° |
| 2026-05-05 17:36 | 35.72966 | -5.90218 | 56 ft | 17 kts | 321° |
| 2026-05-05 17:36 | 35.73000 | -5.90333 | 56 ft | 12 kts | 277° |
| 2026-05-05 17:36 | 35.73007 | -5.90412 | 55 ft | 34 kts | 277° |
| 2026-05-05 17:36 | 35.73062 | -5.90984 | 49 ft | 97 kts | 276° |
| 2026-05-05 17:37 | 35.73157 | -5.91990 | 36 ft | 141 kts | 277° |
| 2026-05-05 17:37 | 35.73262 | -5.93317 | 275 ft | 161 kts | 277° |
| 2026-05-05 17:37 | 35.73405 | -5.94697 | 881 ft | 163 kts | 280° |
| 2026-05-05 17:37 | 35.73580 | -5.96084 | 1493 ft | 169 kts | 279° |
| 2026-05-05 17:38 | 35.73776 | -5.97611 | 1863 ft | 192 kts | 279° |
| 2026-05-05 17:38 | 35.73993 | -5.99333 | 2223 ft | 214 kts | 278° |
| 2026-05-05 17:38 | 35.73927 | -6.01178 | 2975 ft | 220 kts | 258° |
| 2026-05-05 17:38 | 35.73286 | -6.02907 | 3728 ft | 228 kts | 235° |
| 2026-05-05 17:39 | 35.72098 | -6.04242 | 4477 ft | 238 kts | 212° |
| 2026-05-05 17:39 | 35.70512 | -6.04898 | 5205 ft | 246 kts | 186° |
| 2026-05-05 17:39 | 35.68815 | -6.04682 | 6000 ft | 249 kts | 161° |
| 2026-05-05 17:39 | 35.67316 | -6.03607 | 6724 ft | 254 kts | 135° |
| 2026-05-05 17:40 | 35.66321 | -6.01832 | 7445 ft | 255 kts | 110° |
| 2026-05-05 17:40 | 35.66032 | -5.99673 | 8068 ft | 261 kts | 83° |
| 2026-05-05 17:40 | 35.66517 | -5.97530 | 8744 ft | 263 kts | 66° |
| 2026-05-05 17:40 | 35.67216 | -5.95435 | 9482 ft | 267 kts | 66° |
| 2026-05-05 17:41 | 35.67925 | -5.93302 | 10162 ft | 272 kts | 66° |
| 2026-05-05 17:41 | 35.68642 | -5.91132 | 10853 ft | 276 kts | 66° |
| 2026-05-05 17:41 | 35.69362 | -5.88936 | 11594 ft | 280 kts | 67° |
| 2026-05-05 17:41 | 35.70091 | -5.86697 | 12362 ft | 284 kts | 67° |
| 2026-05-05 17:42 | 35.70828 | -5.84427 | 13117 ft | 287 kts | 67° |
| 2026-05-05 17:42 | 35.71575 | -5.82130 | 13808 ft | 291 kts | 67° |
| 2026-05-05 17:42 | 35.72334 | -5.79806 | 14381 ft | 296 kts | 67° |
| 2026-05-05 17:42 | 35.73132 | -5.77369 | 14539 ft | 318 kts | 67° |
| 2026-05-05 17:43 | 35.73989 | -5.74759 | 14666 ft | 340 kts | 67° |
| 2026-05-05 17:43 | 35.74897 | -5.71979 | 14789 ft | 360 kts | 67° |
| 2026-05-05 17:43 | 35.75852 | -5.69046 | 14911 ft | 379 kts | 67° |
| 2026-05-05 17:43 | 35.76653 | -5.65884 | 15151 ft | 394 kts | 80° |
| 2026-05-05 17:44 | 35.77033 | -5.62519 | 15636 ft | 399 kts | 82° |
| 2026-05-05 17:44 | 35.77411 | -5.59117 | 16168 ft | 403 kts | 82° |
| 2026-05-05 17:44 | 35.77798 | -5.55689 | 16750 ft | 406 kts | 82° |
| 2026-05-05 17:44 | 35.78189 | -5.52237 | 17335 ft | 409 kts | 82° |
| 2026-05-05 17:45 | 35.78581 | -5.48758 | 17959 ft | 412 kts | 82° |
| 2026-05-05 17:45 | 35.79007 | -5.45257 | 18558 ft | 415 kts | 81° |
| 2026-05-05 17:45 | 35.79487 | -5.41730 | 19071 ft | 419 kts | 80° |
| 2026-05-05 17:45 | 35.79997 | -5.38190 | 19609 ft | 423 kts | 79° |
| 2026-05-05 17:46 | 35.80522 | -5.34608 | 20147 ft | 427 kts | 79° |
| 2026-05-05 17:46 | 35.80589 | -5.34153 | 20214 ft | 427 kts | 79° |
| 2026-05-05 17:46 | 35.80934 | -5.31778 | 20542 ft | 430 kts | 80° |
| 2026-05-05 17:46 | 35.81455 | -5.28134 | 21032 ft | 435 kts | 80° |
| 2026-05-05 17:47 | 35.81970 | -5.24443 | 21553 ft | 439 kts | 81° |
| 2026-05-05 17:47 | 35.82627 | -5.20806 | 21967 ft | 443 kts | 72° |
| 2026-05-05 17:47 | 35.83798 | -5.17286 | 22379 ft | 446 kts | 61° |
| 2026-05-05 17:47 | 35.85505 | -5.14030 | 22807 ft | 448 kts | 50° |
| 2026-05-05 17:48 | 35.87649 | -5.11245 | 23219 ft | 449 kts | 38° |
| 2026-05-05 17:48 | 35.90128 | -5.09007 | 23613 ft | 449 kts | 30° |
| 2026-05-05 17:48 | 35.92780 | -5.06938 | 23955 ft | 452 kts | 30° |
| 2026-05-05 17:48 | 35.95444 | -5.04849 | 24306 ft | 455 kts | 30° |
| 2026-05-05 17:49 | 35.98119 | -5.02741 | 24666 ft | 457 kts | 30° |
| 2026-05-05 17:49 | 36.00805 | -5.00619 | 24994 ft | 459 kts | 30° |
| 2026-05-05 17:49 | 36.03503 | -4.98485 | 25329 ft | 462 kts | 30° |
| 2026-05-05 17:49 | 36.06210 | -4.96342 | 25663 ft | 464 kts | 30° |
| 2026-05-05 17:50 | 36.08933 | -4.94184 | 25981 ft | 466 kts | 30° |
| 2026-05-05 17:50 | 36.11674 | -4.92013 | 26286 ft | 469 kts | 30° |
| 2026-05-05 17:50 | 36.14391 | -4.89746 | 26601 ft | 474 kts | 35° |
| 2026-05-05 17:50 | 36.16867 | -4.87025 | 26932 ft | 479 kts | 43° |
| 2026-05-05 17:51 | 36.19176 | -4.84038 | 27259 ft | 481 kts | 44° |
| 2026-05-05 17:51 | 36.21491 | -4.81043 | 27566 ft | 484 kts | 43° |
| 2026-05-05 17:51 | 36.23826 | -4.78026 | 27887 ft | 486 kts | 43° |
| 2026-05-05 17:51 | 36.26172 | -4.74997 | 28210 ft | 488 kts | 43° |
| 2026-05-05 17:52 | 36.28517 | -4.71967 | 28655 ft | 487 kts | 43° |
| 2026-05-05 17:52 | 36.30858 | -4.68942 | 29103 ft | 486 kts | 43° |
| 2026-05-05 17:52 | 36.33195 | -4.65917 | 29540 ft | 485 kts | 43° |
| 2026-05-05 17:52 | 36.35526 | -4.62893 | 29995 ft | 485 kts | 43° |
| 2026-05-05 17:53 | 36.37855 | -4.59871 | 30385 ft | 484 kts | 43° |
| 2026-05-05 17:53 | 36.40180 | -4.56851 | 30747 ft | 484 kts | 44° |
| 2026-05-05 17:53 | 36.42498 | -4.53837 | 31142 ft | 484 kts | 43° |
| 2026-05-05 17:53 | 36.44826 | -4.50810 | 31451 ft | 485 kts | 43° |
| 2026-05-05 17:54 | 36.47159 | -4.47775 | 31786 ft | 486 kts | 44° |
| 2026-05-05 17:54 | 36.49494 | -4.44736 | 32155 ft | 486 kts | 44° |
| 2026-05-05 17:54 | 36.51826 | -4.41696 | 32525 ft | 486 kts | 44° |
| 2026-05-05 17:54 | 36.54158 | -4.38656 | 32902 ft | 486 kts | 44° |
| 2026-05-05 17:55 | 36.56486 | -4.35612 | 33289 ft | 485 kts | 44° |
| 2026-05-05 17:55 | 36.58812 | -4.32566 | 33669 ft | 485 kts | 44° |
| 2026-05-05 17:55 | 36.61139 | -4.29515 | 33905 ft | 486 kts | 44° |
| 2026-05-05 17:56 | 36.65848 | -4.23339 | 33942 ft | 497 kts | 44° |
| 2026-05-05 17:56 | 36.70623 | -4.17065 | 33941 ft | 500 kts | 44° |
| 2026-05-05 17:57 | 36.75413 | -4.10750 | 33942 ft | 501 kts | 44° |
| 2026-05-05 17:57 | 36.80199 | -4.04438 | 33945 ft | 501 kts | 44° |
| 2026-05-05 17:58 | 36.84988 | -3.98116 | 33942 ft | 501 kts | 44° |
| 2026-05-05 17:58 | 36.89768 | -3.91778 | 33954 ft | 501 kts | 44° |
| 2026-05-05 17:59 | 36.94520 | -3.85472 | 33986 ft | 502 kts | 44° |
| 2026-05-05 17:59 | 36.99342 | -3.79063 | 33969 ft | 503 kts | 44° |
| 2026-05-05 18:00 | 37.04098 | -3.72727 | 33953 ft | 503 kts | 44° |
| 2026-05-05 18:00 | 37.08881 | -3.66309 | 33964 ft | 505 kts | 47° |
| 2026-05-05 18:01 | 37.12761 | -3.58955 | 33966 ft | 509 kts | 63° |
| 2026-05-05 18:01 | 37.14798 | -3.53777 | 33967 ft | 509 kts | 63° |
| 2026-05-05 18:02 | 37.15172 | -3.52830 | 33967 ft | 509 kts | 63° |
| 2026-05-05 18:02 | 37.18320 | -3.44878 | 33971 ft | 509 kts | 63° |
| 2026-05-05 18:03 | 37.21466 | -3.36925 | 33990 ft | 510 kts | 63° |
| 2026-05-05 18:03 | 37.24604 | -3.28943 | 33977 ft | 510 kts | 63° |
| 2026-05-05 18:04 | 37.27742 | -3.20949 | 33977 ft | 510 kts | 63° |
| 2026-05-05 18:04 | 37.30866 | -3.12952 | 33968 ft | 510 kts | 63° |
| 2026-05-05 18:05 | 37.33990 | -3.04932 | 33958 ft | 511 kts | 63° |
| 2026-05-05 18:05 | 37.37109 | -2.96906 | 33969 ft | 511 kts | 63° |
| 2026-05-05 18:06 | 37.40225 | -2.88878 | 33966 ft | 511 kts | 63° |
| 2026-05-05 18:06 | 37.43348 | -2.80842 | 33965 ft | 511 kts | 63° |
| 2026-05-05 18:07 | 37.46458 | -2.72791 | 33973 ft | 512 kts | 63° |
| 2026-05-05 18:07 | 37.49560 | -2.64733 | 33970 ft | 512 kts | 63° |
| 2026-05-05 18:08 | 37.52141 | -2.58012 | 33963 ft | 513 kts | 63° |
| 2026-05-05 18:08 | 37.55241 | -2.49919 | 33962 ft | 513 kts | 63° |
| 2026-05-05 18:09 | 37.58095 | -2.42451 | 33959 ft | 513 kts | 63° |
| 2026-05-05 18:09 | 37.59543 | -2.38651 | 33954 ft | 513 kts | 63° |
| 2026-05-05 18:10 | 37.60784 | -2.35389 | 33957 ft | 513 kts | 63° |
| 2026-05-05 18:10 | 37.63867 | -2.27271 | 33941 ft | 513 kts | 63° |
| 2026-05-05 18:11 | 37.66954 | -2.19151 | 33939 ft | 513 kts | 63° |
| 2026-05-05 18:11 | 37.70036 | -2.11037 | 33960 ft | 513 kts | 63° |
| 2026-05-05 18:12 | 37.73115 | -2.02894 | 33959 ft | 514 kts | 63° |
| 2026-05-05 18:12 | 37.76184 | -1.94739 | 33935 ft | 514 kts | 63° |
| 2026-05-05 18:13 | 37.79249 | -1.86583 | 33923 ft | 514 kts | 64° |
| 2026-05-05 18:13 | 37.82316 | -1.78412 | 33915 ft | 514 kts | 64° |
| 2026-05-05 18:14 | 37.85381 | -1.70232 | 33920 ft | 514 kts | 64° |
| 2026-05-05 18:14 | 37.88429 | -1.62049 | 33912 ft | 514 kts | 64° |
| 2026-05-05 18:15 | 37.91451 | -1.53907 | 33904 ft | 514 kts | 64° |
| 2026-05-05 18:15 | 37.94489 | -1.45703 | 33893 ft | 514 kts | 64° |
| 2026-05-05 18:16 | 37.97520 | -1.37497 | 33917 ft | 514 kts | 64° |
| 2026-05-05 18:16 | 38.00553 | -1.29279 | 33909 ft | 514 kts | 64° |
| 2026-05-05 18:17 | 38.03577 | -1.21055 | 33917 ft | 514 kts | 64° |
| 2026-05-05 18:17 | 38.06592 | -1.12824 | 33910 ft | 514 kts | 64° |
| 2026-05-05 18:18 | 38.09601 | -1.04599 | 33911 ft | 514 kts | 64° |
| 2026-05-05 18:18 | 38.12608 | -0.96359 | 33903 ft | 514 kts | 64° |
| 2026-05-05 18:19 | 38.15604 | -0.88109 | 33907 ft | 514 kts | 64° |
| 2026-05-05 18:19 | 38.18594 | -0.79856 | 33913 ft | 514 kts | 64° |
| 2026-05-05 18:20 | 38.21583 | -0.71588 | 33924 ft | 515 kts | 64° |
| 2026-05-05 18:20 | 38.24576 | -0.63303 | 33917 ft | 516 kts | 64° |
| 2026-05-05 18:21 | 38.27557 | -0.54983 | 33908 ft | 517 kts | 65° |
| 2026-05-05 18:21 | 38.30321 | -0.46524 | 33913 ft | 518 kts | 68° |
| 2026-05-05 18:22 | 38.32945 | -0.37986 | 33915 ft | 518 kts | 68° |
| 2026-05-05 18:22 | 38.35600 | -0.29442 | 33916 ft | 519 kts | 68° |
| 2026-05-05 18:23 | 38.38362 | -0.20940 | 33916 ft | 519 kts | 66° |
| 2026-05-05 18:23 | 38.41226 | -0.12508 | 33915 ft | 519 kts | 66° |
| 2026-05-05 18:24 | 38.44075 | -0.04055 | 33919 ft | 518 kts | 66° |
| 2026-05-05 18:24 | 38.46861 | 0.04432 | 33900 ft | 519 kts | 67° |
| 2026-05-05 18:25 | 38.49587 | 0.12959 | 33893 ft | 519 kts | 68° |
| 2026-05-05 18:25 | 38.52294 | 0.21492 | 33894 ft | 519 kts | 68° |
| 2026-05-05 18:26 | 38.55006 | 0.30038 | 33903 ft | 519 kts | 68° |
| 2026-05-05 18:26 | 38.57729 | 0.38587 | 33878 ft | 519 kts | 68° |
| 2026-05-05 18:27 | 38.60451 | 0.47120 | 33901 ft | 519 kts | 68° |
| 2026-05-05 18:27 | 38.63162 | 0.55677 | 33908 ft | 518 kts | 68° |
| 2026-05-05 18:28 | 38.66906 | 0.68623 | 33923 ft | 517 kts | 78° |
| 2026-05-05 18:28 | 38.68014 | 0.77642 | 33873 ft | 516 kts | 84° |
| 2026-05-05 18:29 | 38.69011 | 0.86739 | 33897 ft | 516 kts | 84° |
| 2026-05-05 18:29 | 38.70009 | 0.95815 | 33906 ft | 515 kts | 84° |
| 2026-05-05 18:30 | 38.71002 | 1.04896 | 33913 ft | 515 kts | 84° |
| 2026-05-05 18:30 | 38.71988 | 1.13995 | 32805 ft | 522 kts | 84° |
| 2026-05-05 18:31 | 38.72488 | 1.18647 | 31574 ft | 530 kts | 84° |
| 2026-05-05 18:31 | 38.72990 | 1.23332 | 30604 ft | 532 kts | 84° |
| 2026-05-05 18:31 | 38.73493 | 1.28048 | 29265 ft | 537 kts | 84° |
| 2026-05-05 18:31 | 38.73990 | 1.32712 | 28532 ft | 517 kts | 84° |
| 2026-05-05 18:32 | 38.74467 | 1.37165 | 27916 ft | 497 kts | 84° |
| 2026-05-05 18:32 | 38.74930 | 1.41493 | 27221 ft | 483 kts | 84° |
| 2026-05-05 18:32 | 38.75378 | 1.45701 | 26536 ft | 470 kts | 84° |
| 2026-05-05 18:32 | 38.75811 | 1.49819 | 25871 ft | 465 kts | 84° |
| 2026-05-05 18:33 | 38.76239 | 1.53908 | 25202 ft | 461 kts | 84° |
| 2026-05-05 18:33 | 38.76659 | 1.57957 | 24562 ft | 456 kts | 84° |
| 2026-05-05 18:33 | 38.77073 | 1.61963 | 23914 ft | 451 kts | 84° |
| 2026-05-05 18:33 | 38.77483 | 1.65927 | 23226 ft | 446 kts | 84° |
| 2026-05-05 18:34 | 38.77885 | 1.69849 | 22572 ft | 442 kts | 84° |
| 2026-05-05 18:34 | 38.78284 | 1.73734 | 21974 ft | 438 kts | 84° |
| 2026-05-05 18:34 | 38.78675 | 1.77574 | 21383 ft | 433 kts | 84° |
| 2026-05-05 18:34 | 38.79061 | 1.81394 | 20827 ft | 432 kts | 84° |
| 2026-05-05 18:35 | 38.79448 | 1.85210 | 20268 ft | 432 kts | 84° |
| 2026-05-05 18:35 | 38.80000 | 1.88992 | 19718 ft | 432 kts | 75° |
| 2026-05-05 18:35 | 38.81005 | 1.92613 | 19231 ft | 430 kts | 65° |
| 2026-05-05 18:35 | 38.82426 | 1.95964 | 18760 ft | 426 kts | 55° |
| 2026-05-05 18:36 | 38.84188 | 1.99012 | 18252 ft | 424 kts | 50° |
| 2026-05-05 18:36 | 38.85486 | 2.01141 | 17853 ft | 422 kts | 50° |
| 2026-05-05 18:36 | 38.86792 | 2.03291 | 17479 ft | 420 kts | 50° |
| 2026-05-05 18:37 | 38.88576 | 2.06239 | 16960 ft | 417 kts | 50° |
| 2026-05-05 18:37 | 38.90349 | 2.09169 | 16425 ft | 414 kts | 51° |
| 2026-05-05 18:37 | 38.92110 | 2.12084 | 15882 ft | 412 kts | 51° |
| 2026-05-05 18:37 | 38.93859 | 2.14987 | 15331 ft | 410 kts | 51° |
| 2026-05-05 18:38 | 38.95597 | 2.17880 | 14780 ft | 408 kts | 51° |
| 2026-05-05 18:38 | 38.97329 | 2.20759 | 14224 ft | 407 kts | 51° |
| 2026-05-05 18:38 | 38.99059 | 2.23627 | 13658 ft | 405 kts | 51° |
| 2026-05-05 18:38 | 39.00781 | 2.26486 | 13047 ft | 403 kts | 51° |
| 2026-05-05 18:39 | 39.02484 | 2.29320 | 12491 ft | 399 kts | 51° |
| 2026-05-05 18:39 | 39.04175 | 2.32135 | 11928 ft | 396 kts | 51° |
| 2026-05-05 18:39 | 39.05853 | 2.34926 | 11375 ft | 393 kts | 51° |
| 2026-05-05 18:39 | 39.07517 | 2.37698 | 10814 ft | 390 kts | 51° |
| 2026-05-05 18:40 | 39.09157 | 2.40437 | 10505 ft | 379 kts | 51° |
| 2026-05-05 18:40 | 39.10734 | 2.43076 | 10386 ft | 364 kts | 51° |
| 2026-05-05 18:40 | 39.12251 | 2.45615 | 10264 ft | 351 kts | 51° |
| 2026-05-05 18:40 | 39.13808 | 2.47981 | 10180 ft | 346 kts | 46° |
| 2026-05-05 18:41 | 39.15464 | 2.50258 | 10107 ft | 349 kts | 45° |
| 2026-05-05 18:41 | 39.17145 | 2.52517 | 10032 ft | 348 kts | 44° |
| 2026-05-05 18:41 | 39.18794 | 2.54718 | 9845 ft | 332 kts | 44° |
| 2026-05-05 18:41 | 39.20341 | 2.56790 | 9713 ft | 310 kts | 44° |
| 2026-05-05 18:42 | 39.21783 | 2.58735 | 9576 ft | 293 kts | 44° |
| 2026-05-05 18:42 | 39.23183 | 2.60625 | 9390 ft | 291 kts | 44° |
| 2026-05-05 18:42 | 39.24569 | 2.62496 | 8987 ft | 286 kts | 44° |
| 2026-05-05 18:42 | 39.25938 | 2.64343 | 8601 ft | 283 kts | 44° |
| 2026-05-05 18:43 | 39.27291 | 2.66173 | 8219 ft | 280 kts | 44° |
| 2026-05-05 18:43 | 39.28627 | 2.67983 | 7929 ft | 277 kts | 44° |
| 2026-05-05 18:43 | 39.29968 | 2.69802 | 7908 ft | 282 kts | 44° |
| 2026-05-05 18:43 | 39.31320 | 2.71637 | 7909 ft | 281 kts | 45° |
| 2026-05-05 18:44 | 39.32644 | 2.73434 | 7922 ft | 273 kts | 44° |
| 2026-05-05 18:44 | 39.33942 | 2.75196 | 7915 ft | 269 kts | 44° |
| 2026-05-05 18:44 | 39.35230 | 2.76943 | 7914 ft | 268 kts | 44° |
| 2026-05-05 18:44 | 39.36518 | 2.78692 | 7915 ft | 269 kts | 44° |
| 2026-05-05 18:45 | 39.37801 | 2.80439 | 7917 ft | 268 kts | 44° |
| 2026-05-05 18:45 | 39.39089 | 2.82192 | 7912 ft | 268 kts | 44° |
| 2026-05-05 18:45 | 39.40369 | 2.83938 | 7912 ft | 268 kts | 44° |
| 2026-05-05 18:45 | 39.41636 | 2.85666 | 7912 ft | 268 kts | 44° |
| 2026-05-05 18:46 | 39.42918 | 2.87415 | 7911 ft | 268 kts | 44° |
| 2026-05-05 18:46 | 39.44196 | 2.89161 | 7912 ft | 268 kts | 44° |
| 2026-05-05 18:46 | 39.45486 | 2.90923 | 7562 ft | 270 kts | 44° |
| 2026-05-05 18:46 | 39.46774 | 2.92683 | 7069 ft | 268 kts | 44° |
| 2026-05-05 18:47 | 39.48052 | 2.94430 | 6588 ft | 266 kts | 44° |
| 2026-05-05 18:47 | 39.49320 | 2.96167 | 6089 ft | 264 kts | 44° |
| 2026-05-05 18:47 | 39.50574 | 2.97891 | 5577 ft | 262 kts | 44° |
| 2026-05-05 18:47 | 39.51822 | 2.99606 | 5080 ft | 261 kts | 43° |
| 2026-05-05 18:48 | 39.53063 | 3.01305 | 4588 ft | 258 kts | 43° |
| 2026-05-05 18:48 | 39.54261 | 3.02964 | 4310 ft | 246 kts | 47° |
| 2026-05-05 18:48 | 39.55127 | 3.04815 | 4067 ft | 236 kts | 62° |
| 2026-05-05 18:48 | 39.56050 | 3.06447 | 3803 ft | 216 kts | 30° |
| 2026-05-05 18:49 | 39.57369 | 3.07034 | 3565 ft | 192 kts | 352° |
| 2026-05-05 18:49 | 39.58541 | 3.06498 | 3363 ft | 175 kts | 320° |
| 2026-05-05 18:49 | 39.59448 | 3.05483 | 3114 ft | 171 kts | 314° |
| 2026-05-05 18:49 | 39.60288 | 3.04408 | 3002 ft | 169 kts | 312° |
| 2026-05-05 18:50 | 39.61125 | 3.03343 | 2994 ft | 169 kts | 312° |
| 2026-05-05 18:50 | 39.61964 | 3.02278 | 2990 ft | 168 kts | 312° |
| 2026-05-05 18:50 | 39.62781 | 3.01194 | 2987 ft | 167 kts | 304° |
| 2026-05-05 18:50 | 39.63150 | 2.99800 | 2970 ft | 166 kts | 277° |
| 2026-05-05 18:51 | 39.63245 | 2.98315 | 2836 ft | 165 kts | 273° |
| 2026-05-05 18:51 | 39.63294 | 2.96820 | 2758 ft | 167 kts | 272° |
| 2026-05-05 18:51 | 39.63343 | 2.95316 | 2688 ft | 167 kts | 272° |
| 2026-05-05 18:51 | 39.63411 | 2.93818 | 2684 ft | 165 kts | 272° |
| 2026-05-05 18:52 | 39.63175 | 2.92390 | 2685 ft | 165 kts | 244° |
| 2026-05-05 18:52 | 39.62577 | 2.91093 | 2581 ft | 168 kts | 240° |
| 2026-05-05 18:52 | 39.61967 | 2.89803 | 2415 ft | 168 kts | 240° |
| 2026-05-05 18:52 | 39.61564 | 2.88950 | 2273 ft | 166 kts | 240° |
| 2026-05-05 18:53 | 39.60968 | 2.87685 | 2061 ft | 162 kts | 240° |
| 2026-05-05 18:53 | 39.60392 | 2.86461 | 1853 ft | 158 kts | 240° |
| 2026-05-05 18:53 | 39.59821 | 2.85249 | 1651 ft | 157 kts | 239° |
| 2026-05-05 18:53 | 39.59251 | 2.84039 | 1439 ft | 157 kts | 239° |
| 2026-05-05 18:54 | 39.58681 | 2.82828 | 1225 ft | 155 kts | 238° |
| 2026-05-05 18:54 | 39.58138 | 2.81676 | 1017 ft | 146 kts | 238° |
| 2026-05-05 18:54 | 39.57625 | 2.80589 | 821 ft | 138 kts | 238° |
| 2026-05-05 18:54 | 39.57127 | 2.79537 | 645 ft | 137 kts | 239° |
| 2026-05-05 18:55 | 39.56638 | 2.78484 | 457 ft | 135 kts | 237° |
| 2026-05-05 18:55 | 39.56143 | 2.77447 | 292 ft | 135 kts | 237° |
| 2026-05-05 18:55 | 39.55645 | 2.76432 | 143 ft | 133 kts | 243° |
| 2026-05-05 18:55 | 39.55162 | 2.75438 | 199 ft | 129 kts | 240° |
| 2026-05-05 18:56 | 39.54675 | 2.74456 | 422 ft | 131 kts | 238° |
| 2026-05-05 18:56 | 39.54165 | 2.73458 | 645 ft | 134 kts | 231° |
| 2026-05-05 18:56 | 39.53376 | 2.72826 | 823 ft | 137 kts | 200° |
| 2026-05-05 18:56 | 39.52447 | 2.72567 | 1025 ft | 139 kts | 189° |
| 2026-05-05 18:57 | 39.51492 | 2.72472 | 1382 ft | 140 kts | 187° |
| 2026-05-05 18:57 | 39.50481 | 2.72525 | 1579 ft | 150 kts | 172° |
| 2026-05-05 18:57 | 39.49395 | 2.72915 | 1787 ft | 175 kts | 166° |
| 2026-05-05 18:57 | 39.48128 | 2.73454 | 1917 ft | 207 kts | 164° |
| 2026-05-05 18:58 | 39.46703 | 2.74112 | 2137 ft | 223 kts | 162° |
| 2026-05-05 18:58 | 39.45271 | 2.74961 | 2344 ft | 231 kts | 144° |
| 2026-05-05 18:58 | 39.44287 | 2.76614 | 2532 ft | 238 kts | 110° |
| 2026-05-05 18:58 | 39.44115 | 2.78721 | 2741 ft | 239 kts | 80° |
| 2026-05-05 18:59 | 39.44480 | 2.80795 | 2930 ft | 241 kts | 73° |
| 2026-05-05 18:59 | 39.44942 | 2.82885 | 2991 ft | 242 kts | 72° |
| 2026-05-05 18:59 | 39.45415 | 2.84978 | 2997 ft | 242 kts | 72° |
| 2026-05-05 18:59 | 39.45897 | 2.87089 | 3001 ft | 247 kts | 72° |
| 2026-05-05 19:00 | 39.46384 | 2.89229 | 3000 ft | 248 kts | 72° |
| 2026-05-05 19:00 | 39.46876 | 2.91374 | 2996 ft | 249 kts | 72° |
| 2026-05-05 19:00 | 39.47366 | 2.93522 | 2997 ft | 249 kts | 72° |
| 2026-05-05 19:00 | 39.47853 | 2.95664 | 2998 ft | 249 kts | 72° |
| 2026-05-05 19:01 | 39.48345 | 2.97809 | 2994 ft | 248 kts | 72° |
| 2026-05-05 19:01 | 39.48831 | 2.99955 | 2994 ft | 248 kts | 72° |
| 2026-05-05 19:01 | 39.49314 | 3.02100 | 2993 ft | 248 kts | 72° |
| 2026-05-05 19:01 | 39.49824 | 3.04237 | 2992 ft | 248 kts | 65° |
| 2026-05-05 19:02 | 39.50589 | 3.06231 | 2995 ft | 246 kts | 58° |
| 2026-05-05 19:02 | 39.51433 | 3.08155 | 2994 ft | 246 kts | 57° |
| 2026-05-05 19:02 | 39.52286 | 3.10070 | 2995 ft | 246 kts | 57° |
| 2026-05-05 19:02 | 39.53136 | 3.11988 | 2994 ft | 246 kts | 57° |
| 2026-05-05 19:03 | 39.53987 | 3.13907 | 3001 ft | 245 kts | 58° |
| 2026-05-05 19:03 | 39.54842 | 3.15809 | 2995 ft | 243 kts | 58° |
| 2026-05-05 19:03 | 39.55704 | 3.17690 | 2994 ft | 243 kts | 57° |
| 2026-05-05 19:03 | 39.56562 | 3.19568 | 2994 ft | 243 kts | 57° |
| 2026-05-05 19:04 | 39.57454 | 3.21427 | 2992 ft | 242 kts | 49° |
| 2026-05-05 19:04 | 39.58765 | 3.22697 | 2993 ft | 234 kts | 15° |
| 2026-05-05 19:04 | 39.60342 | 3.23128 | 2996 ft | 233 kts | 4° |
| 2026-05-05 19:04 | 39.61952 | 3.23372 | 2995 ft | 233 kts | 2° |
| 2026-05-05 19:05 | 39.63564 | 3.23581 | 2990 ft | 233 kts | 2° |
| 2026-05-05 19:05 | 39.65182 | 3.23786 | 2991 ft | 233 kts | 2° |
| 2026-05-05 19:05 | 39.66778 | 3.23986 | 2987 ft | 224 kts | 2° |
| 2026-05-05 19:05 | 39.68284 | 3.24186 | 2993 ft | 215 kts | 2° |
| 2026-05-05 19:06 | 39.69755 | 3.24390 | 2985 ft | 208 kts | 2° |
| 2026-05-05 19:06 | 39.71159 | 3.24594 | 2989 ft | 204 kts | 2° |
| 2026-05-05 19:06 | 39.72584 | 3.24795 | 2988 ft | 203 kts | 2° |
| 2026-05-05 19:06 | 39.73939 | 3.24679 | 2989 ft | 195 kts | 333° |
| 2026-05-05 19:07 | 39.74937 | 3.23586 | 2991 ft | 188 kts | 296° |
| 2026-05-05 19:07 | 39.75157 | 3.21933 | 2991 ft | 187 kts | 261° |
| 2026-05-05 19:07 | 39.74838 | 3.20286 | 2991 ft | 189 kts | 253° |
| 2026-05-05 19:07 | 39.74424 | 3.18662 | 2989 ft | 189 kts | 252° |
| 2026-05-05 19:08 | 39.73996 | 3.17050 | 2992 ft | 189 kts | 252° |
| 2026-05-05 19:08 | 39.73602 | 3.15445 | 2991 ft | 189 kts | 254° |
| 2026-05-05 19:08 | 39.73111 | 3.13831 | 2992 ft | 191 kts | 245° |
| 2026-05-05 19:08 | 39.72484 | 3.12314 | 2992 ft | 191 kts | 242° |
| 2026-05-05 19:09 | 39.71809 | 3.10826 | 2992 ft | 192 kts | 241° |
| 2026-05-05 19:09 | 39.71125 | 3.09351 | 2988 ft | 187 kts | 241° |
| 2026-05-05 19:09 | 39.70469 | 3.07947 | 2986 ft | 183 kts | 241° |
| 2026-05-05 19:09 | 39.69808 | 3.06530 | 2995 ft | 187 kts | 241° |
| 2026-05-05 19:10 | 39.69124 | 3.05066 | 2995 ft | 191 kts | 241° |
| 2026-05-05 19:10 | 39.68428 | 3.03580 | 2994 ft | 189 kts | 241° |
| 2026-05-05 19:10 | 39.67766 | 3.02168 | 3027 ft | 181 kts | 242° |
| 2026-05-05 19:10 | 39.67118 | 3.00785 | 3014 ft | 177 kts | 242° |
| 2026-05-05 19:11 | 39.66480 | 2.99424 | 2999 ft | 176 kts | 241° |
| 2026-05-05 19:11 | 39.65845 | 2.98069 | 2994 ft | 176 kts | 241° |
| 2026-05-05 19:11 | 39.65209 | 2.96712 | 2992 ft | 176 kts | 242° |
| 2026-05-05 19:11 | 39.64576 | 2.95362 | 2993 ft | 175 kts | 241° |
| 2026-05-05 19:12 | 39.63940 | 2.94009 | 2991 ft | 176 kts | 242° |
| 2026-05-05 19:12 | 39.63303 | 2.92653 | 2865 ft | 175 kts | 241° |
| 2026-05-05 19:12 | 39.62669 | 2.91303 | 2669 ft | 175 kts | 241° |
| 2026-05-05 19:12 | 39.62035 | 2.89953 | 2457 ft | 175 kts | 240° |
| 2026-05-05 19:13 | 39.61420 | 2.88648 | 2226 ft | 166 kts | 240° |
| 2026-05-05 19:13 | 39.60829 | 2.87390 | 2011 ft | 160 kts | 240° |
| 2026-05-05 19:13 | 39.60266 | 2.86195 | 1800 ft | 150 kts | 240° |
| 2026-05-05 19:13 | 39.59747 | 2.85093 | 1633 ft | 139 kts | 239° |
| 2026-05-05 19:14 | 39.59254 | 2.84046 | 1438 ft | 135 kts | 239° |
| 2026-05-05 19:14 | 39.58764 | 2.83004 | 1256 ft | 136 kts | 238° |
| 2026-05-05 19:14 | 39.58267 | 2.81971 | 1093 ft | 133 kts | 238° |
| 2026-05-05 19:14 | 39.57778 | 2.80952 | 856 ft | 133 kts | 238° |
| 2026-05-05 19:15 | 39.57291 | 2.79913 | 653 ft | 135 kts | 238° |
| 2026-05-05 19:15 | 39.56815 | 2.78873 | 521 ft | 133 kts | 238° |
| 2026-05-05 19:15 | 39.56335 | 2.77850 | 391 ft | 132 kts | 238° |
| 2026-05-05 19:15 | 39.55854 | 2.76834 | 237 ft | 132 kts | 238° |
| 2026-05-05 19:16 | 39.55376 | 2.75827 | 95 ft | 128 kts | 238° |
| 2026-05-05 19:16 | 39.54887 | 2.74839 | 47 ft | 131 kts | 243° |
| 2026-05-05 19:16 | 39.54418 | 2.73871 | 38 ft | 98 kts | 240° |
| 2026-05-05 19:16 | 39.54269 | 2.73424 | 38 ft | 32 kts | 268° |
| 2026-05-05 19:17 | 39.54267 | 2.73238 | 38 ft | 16 kts | 271° |
| 2026-05-05 19:17 | 39.54332 | 2.73184 | 38 ft | 13 kts | 32° |
| 2026-05-05 19:17 | 39.54390 | 2.73282 | 38 ft | 14 kts | 58° |
| 2026-05-05 19:17 | 39.54465 | 2.73311 | 36 ft | 14 kts | 342° |
| 2026-05-05 19:18 | 39.54539 | 2.73277 | 38 ft | 1 kts | 343° |